»·PEaware :: N224TR KSNA-KSNA

N224TR :: KSNA-KSNA

FLIGHT INFORMATION

Flight Status: Arrived
Operator: Privately registered:
United States
More flights under this callsign
Pilot: Logan D. (20254)
Aircraft: Unknown
(L39)
More flights by this aircraft type
Origin: KSNA John Wayne-Orange Co
United States
Destination: KSNA John Wayne-Orange Co
United States
More flights between these airports :: More routes between these airports
Route:
File this flight plan on PilotEdge
Remarks: SXC VOR intercepts
Altitude:
(Current/Filed)
5,500ft
Speed:
(Current/Filed)
200kts
Departed: 25-Nov-20 10:55 AM
Arrived: 25-Nov-20 11:37 AM
Distance/Time
Traveled:
1nm/0:41
Distance/Time
To Go:
Arrived

Flight Plot

Page will automatically refresh every two minutes.


Map Options




Map Legend


Flown Route
Filed Route
Departure Airport
Arrival Airport
Navaid (VOR, NDB)
Fix

Horizontal Profiles

Position Reports

Time Latitude Longitude Heading Altitude Ground
Speed
25-Nov-20 10:27 33.667606 -117.871019 42 62ft 0kts
25-Nov-20 10:28 33.667606 -117.871019 42 62ft 0kts
25-Nov-20 10:29 33.667606 -117.871019 42 62ft 0kts
25-Nov-20 10:30 33.667606 -117.871019 42 62ft 0kts
25-Nov-20 10:31 33.667606 -117.871019 42 62ft 0kts
25-Nov-20 10:32 33.667606 -117.871019 42 62ft 0kts
25-Nov-20 10:33 33.667606 -117.871018 42 62ft 0kts
25-Nov-20 10:34 33.667607 -117.871018 42 62ft 0kts
25-Nov-20 10:35 33.667607 -117.871017 42 62ft 0kts
25-Nov-20 10:36 33.667608 -117.871016 42 62ft 0kts
25-Nov-20 10:37 33.667609 -117.871015 42 62ft 0kts
25-Nov-20 10:38 33.667610 -117.871014 42 62ft 0kts
25-Nov-20 10:39 33.667611 -117.871013 42 62ft 0kts
25-Nov-20 10:40 33.667612 -117.871012 42 62ft 0kts
25-Nov-20 10:41 33.667613 -117.871011 42 62ft 0kts
25-Nov-20 10:42 33.667614 -117.871010 42 62ft 0kts
25-Nov-20 10:43 33.667615 -117.871009 42 62ft 0kts
25-Nov-20 10:44 33.667616 -117.871008 42 62ft 0kts
25-Nov-20 10:45 33.667617 -117.871007 42 62ft 0kts
25-Nov-20 10:46 33.667617 -117.871006 42 62ft 0kts
25-Nov-20 10:47 33.667618 -117.871005 42 62ft 0kts
25-Nov-20 10:48 33.667620 -117.871004 42 62ft 0kts
25-Nov-20 10:49 33.669420 -117.870506 37 62ft 18kts
25-Nov-20 10:50 33.673168 -117.867004 33 62ft 10kts
25-Nov-20 10:51 33.676444 -117.865554 27 62ft 15kts
25-Nov-20 10:52 33.679571 -117.863664 349 62ft 4kts
25-Nov-20 10:53 33.679783 -117.863988 297 62ft 11kts
25-Nov-20 10:55 33.676358 -117.868416 208 62ft 84kts
25-Nov-20 10:56 33.647376 -117.902250 231 1053ft 185kts
25-Nov-20 10:57 33.612162 -117.954000 230 1582ft 214kts
25-Nov-20 10:58 33.581758 -117.996946 228 1485ft 154kts
25-Nov-20 10:59 33.548088 -118.041311 227 2627ft 240kts
25-Nov-20 11:00 33.508886 -118.094518 230 4834ft 219kts
25-Nov-20 11:01 33.467411 -118.151692 234 6070ft 245kts
25-Nov-20 11:02 33.446294 -118.221156 265 5369ft 205kts
25-Nov-20 11:03 33.439349 -118.290848 264 5511ft 222kts
25-Nov-20 11:04 33.443989 -118.365051 282 5526ft 216kts
25-Nov-20 11:05 33.480158 -118.406044 12 5344ft 216kts
25-Nov-20 11:06 33.540986 -118.367520 65 5422ft 280kts
25-Nov-20 11:07 33.498881 -118.315398 194 5550ft 255kts
25-Nov-20 11:08 33.457215 -118.370075 290 5426ft 242kts
25-Nov-20 11:09 33.522282 -118.378130 27 5655ft 263kts
25-Nov-20 11:09 33.505911 -118.311182 155 5811ft 322kts
25-Nov-20 11:11 33.414490 -118.329764 242 5043ft 299kts
25-Nov-20 11:12 33.464186 -118.394050 356 5598ft 332kts
25-Nov-20 11:13 33.512784 -118.380400 13 6077ft 199kts
25-Nov-20 11:14 33.521920 -118.317904 127 5667ft 237kts
25-Nov-20 11:14 33.474731 -118.289060 179 5377ft 226kts
25-Nov-20 11:16 33.405749 -118.304512 219 5351ft 199kts
25-Nov-20 11:16 33.404152 -118.356382 289 5277ft 218kts
25-Nov-20 11:17 33.446754 -118.402094 329 5511ft 203kts
25-Nov-20 11:18 33.497511 -118.382494 40 5412ft 206kts
25-Nov-20 11:19 33.504343 -118.327909 106 5667ft 169kts
25-Nov-20 11:20 33.468117 -118.293308 179 6154ft 173kts
25-Nov-20 11:21 33.435715 -118.259177 77 6321ft 210kts
25-Nov-20 11:22 33.461820 -118.223440 350 5603ft 157kts
25-Nov-20 11:23 33.481354 -118.263120 233 5576ft 227kts
25-Nov-20 11:24 33.492965 -118.324689 346 5547ft 212kts
25-Nov-20 11:25 33.526935 -118.280303 70 5521ft 210kts
25-Nov-20 11:26 33.549057 -118.217258 59 5512ft 193kts
25-Nov-20 11:27 33.575199 -118.159872 57 5160ft 188kts
25-Nov-20 11:28 33.602393 -118.107799 52 4876ft 188kts
25-Nov-20 11:29 33.637616 -118.053457 53 3384ft 220kts
25-Nov-20 11:30 33.663654 -117.995591 75 2063ft 161kts
25-Nov-20 11:31 33.673924 -117.937327 72 2044ft 164kts
25-Nov-20 11:32 33.709108 -117.907007 27 1865ft 160kts
25-Nov-20 11:33 33.723350 -117.865739 106 1118ft 146kts
25-Nov-20 11:34 33.694674 -117.856642 208 486ft 131kts
25-Nov-20 11:35 33.672118 -117.871087 207 62ft 44kts
25-Nov-20 11:36 33.668958 -117.871490 123 62ft 9kts
25-Nov-20 11:37 33.667551 -117.871083 41 62ft 0kts
25-Nov-20 11:38 33.667551 -117.871083 41 62ft 0kts

Navigation Log

Ident Type
Flight plan parsing failed, navigation log unavailable